Time,TemperatureF,DewpointF,PressureIn,WindDirection,WindDirectionDegrees,WindSpeedMPH,WindSpeedGustMPH,Humidity,HourlyPrecipIn,Conditions,Clouds,dailyrainin,SoftwareType,DateUTC
2013-04-26 00:02:00,48.0,41.5,30.15,NW,315,0.0,0.0,78,0.00,CLR,,0.00,WeatherDisplay:10.37,2013-04-26 07:02:00,
2013-04-26 00:07:00,48.2,41.7,30.15,SE,135,0.0,0.0,78,0.00,CLR,,0.00,WeatherDisplay:10.37,2013-04-26 07:07:00,
2013-04-26 00:12:00,48.4,41.8,30.15,South,180,1.2,0.0,78,0.00,CLR,,0.00,WeatherDisplay:10.37,2013-04-26 07:12:00,
2013-04-26 00:17:00,48.4,41.8,30.15,NW,315,1.2,0.0,78,0.00,CLR,,0.00,WeatherDisplay:10.37,2013-04-26 07:17:00,
2013-04-26 00:22:00,48.6,42.0,30.15,West,270,2.3,2.3,78,0.00,CLR,,0.00,WeatherDisplay:10.37,2013-04-26 07:22:00,
2013-04-26 00:28:00,48.6,42.0,30.15,West,270,1.2,1.2,78,0.00,CLR,,0.00,WeatherDisplay:10.37,2013-04-26 07:28:00,
2013-04-26 00:33:00,48.7,42.2,30.15,East,90,1.2,1.2,78,0.00,CLR,,0.00,WeatherDisplay:10.37,2013-04-26 07:33:00,
2013-04-26 00:38:00,48.7,42.2,30.16,SW,225,1.2,1.2,78,0.00,CLR,,0.00,WeatherDisplay:10.37,2013-04-26 07:38:00,
2013-04-26 00:43:00,48.9,42.4,30.16,West,270,5.8,5.8,78,0.00,CLR,,0.00,WeatherDisplay:10.37,2013-04-26 07:43:00,
2013-04-26 00:48:00,48.9,42.4,30.16,North,0,3.5,3.5,78,0.00,CLR,,0.00,WeatherDisplay:10.37,2013-04-26 07:48:00,
2013-04-26 00:53:00,48.9,42.4,30.17,South,180,1.2,0.0,78,0.00,CLR,,0.00,WeatherDisplay:10.37,2013-04-26 07:53:00,
2013-04-26 00:58:00,49.1,42.5,30.16,NE,45,3.5,3.5,78,0.00,CLR,,0.00,WeatherDisplay:10.37,2013-04-26 07:58:00,
2013-04-26 01:03:00,49.1,42.5,30.16,South,180,0.0,0.0,78,0.00,CLR,,0.00,WeatherDisplay:10.37,2013-04-26 08:03:00,
2013-04-26 01:08:00,49.3,42.7,30.16,NW,315,0.0,0.0,78,0.00,CLR,,0.00,WeatherDisplay:10.37,2013-04-26 08:08:00,
2013-04-26 01:13:00,49.3,42.4,30.16,North,0,3.5,3.5,77,0.00,CLR,,0.00,WeatherDisplay:10.37,2013-04-26 08:13:00,
2013-04-26 01:18:00,49.5,42.5,30.16,East,90,1.2,0.0,77,0.00,CLR,,0.00,WeatherDisplay:10.37,2013-04-26 08:18:00,
2013-04-26 01:23:00,49.5,42.5,30.16,West,270,1.2,1.2,77,0.00,CLR,,0.00,WeatherDisplay:10.37,2013-04-26 08:23:00,
2013-04-26 01:28:00,49.5,42.5,30.15,NE,45,1.2,0.0,77,0.00,CLR,,0.00,WeatherDisplay:10.37,2013-04-26 08:28:00,
2013-04-26 01:33:00,49.5,42.5,30.16,South,180,1.2,0.0,77,0.00,CLR,,0.00,WeatherDisplay:10.37,2013-04-26 08:33:00,
2013-04-26 01:38:00,49.5,42.2,30.16,SW,225,1.2,1.2,76,0.00,CLR,,0.00,WeatherDisplay:10.37,2013-04-26 08:38:00,
2013-04-26 01:43:00,49.5,42.2,30.16,West,270,0.0,0.0,76,0.00,CLR,,0.00,WeatherDisplay:10.37,2013-04-26 08:43:00,
2013-04-26 01:48:00,49.5,42.2,30.16,West,270,1.2,0.0,76,0.00,CLR,,0.00,WeatherDisplay:10.37,2013-04-26 08:48:00,
2013-04-26 01:53:00,49.5,42.2,30.16,SW,225,1.2,0.0,76,0.00,CLR,,0.00,WeatherDisplay:10.37,2013-04-26 08:53:00,
2013-04-26 01:58:00,49.5,42.2,30.16,West,270,1.2,0.0,76,0.00,CLR,,0.00,WeatherDisplay:10.37,2013-04-26 08:58:00,
2013-04-26 02:03:00,49.3,41.7,30.16,SW,225,1.2,0.0,75,0.00,CLR,,0.00,WeatherDisplay:10.37,2013-04-26 09:03:00,
2013-04-26 02:08:00,49.3,41.7,30.16,SW,225,1.2,1.2,75,0.00,CLR,,0.00,WeatherDisplay:10.37,2013-04-26 09:08:00,
2013-04-26 02:13:00,49.3,41.7,30.16,South,180,1.2,0.0,75,0.00,CLR,,0.00,WeatherDisplay:10.37,2013-04-26 09:13:00,
2013-04-26 02:18:00,49.3,41.7,30.16,NW,315,3.5,0.0,75,0.00,CLR,,0.00,WeatherDisplay:10.37,2013-04-26 09:18:00,
2013-04-26 02:23:00,49.1,41.5,30.16,SW,225,2.3,2.3,75,0.00,CLR,,0.00,WeatherDisplay:10.37,2013-04-26 09:23:00,
2013-04-26 02:28:00,49.1,41.5,30.16,SW,225,3.5,3.5,75,0.00,CLR,,0.00,WeatherDisplay:10.37,2013-04-26 09:28:00,
2013-04-26 02:33:00,48.9,41.7,30.17,SW,225,2.3,2.3,76,0.00,CLR,,0.00,WeatherDisplay:10.37,2013-04-26 09:33:00,
2013-04-26 02:38:00,48.7,41.5,30.17,West,270,3.5,3.5,76,0.00,CLR,,0.00,WeatherDisplay:10.37,2013-04-26 09:38:00,
2013-04-26 02:43:00,48.6,41.3,30.17,SW,225,1.2,1.2,76,0.00,CLR,,0.00,WeatherDisplay:10.37,2013-04-26 09:43:00,
2013-04-26 02:48:00,48.4,41.2,30.16,SW,225,3.5,3.5,76,0.00,CLR,,0.00,WeatherDisplay:10.37,2013-04-26 09:48:00,
2013-04-26 02:53:00,48.2,41.3,30.17,SW,225,3.5,3.5,77,0.00,CLR,,0.00,WeatherDisplay:10.37,2013-04-26 09:53:00,
2013-04-26 02:58:00,48.0,41.2,30.17,SW,225,3.5,0.0,77,0.00,CLR,,0.00,WeatherDisplay:10.37,2013-04-26 09:58:00,
2013-04-26 03:04:00,48.0,41.2,30.17,SW,225,1.2,0.0,77,0.00,CLR,,0.00,WeatherDisplay:10.37,2013-04-26 10:04:00,
2013-04-26 03:09:00,48.0,41.2,30.17,SW,225,1.2,0.0,77,0.00,CLR,,0.00,WeatherDisplay:10.37,2013-04-26 10:09:00,
2013-04-26 03:14:00,48.0,41.5,30.17,SW,225,1.2,0.0,78,0.00,CLR,,0.00,WeatherDisplay:10.37,2013-04-26 10:14:00,
2013-04-26 03:19:00,48.0,41.5,30.17,NW,315,1.2,1.2,78,0.00,CLR,,0.00,WeatherDisplay:10.37,2013-04-26 10:19:00,
2013-04-26 03:24:00,48.0,41.5,30.17,SW,225,2.3,2.3,78,0.00,CLR,,0.00,WeatherDisplay:10.37,2013-04-26 10:24:00,
2013-04-26 03:29:00,47.8,41.3,30.17,South,180,1.2,1.2,78,0.00,CLR,,0.00,WeatherDisplay:10.37,2013-04-26 10:29:00,
2013-04-26 03:34:00,47.8,41.3,30.17,South,180,2.3,2.3,78,0.00,CLR,,0.00,WeatherDisplay:10.37,2013-04-26 10:34:00,
2013-04-26 03:39:00,47.8,41.3,30.17,SW,225,2.3,2.3,78,0.00,CLR,,0.00,WeatherDisplay:10.37,2013-04-26 10:39:00,
2013-04-26 03:44:00,47.8,41.3,30.17,SW,225,2.3,0.0,78,0.00,CLR,,0.00,WeatherDisplay:10.37,2013-04-26 10:44:00,
2013-04-26 03:49:00,47.7,41.5,30.17,SW,225,2.3,2.3,79,0.00,CLR,,0.00,WeatherDisplay:10.37,2013-04-26 10:49:00,
2013-04-26 03:54:00,47.7,41.5,30.17,SW,225,2.3,2.3,79,0.00,CLR,,0.00,WeatherDisplay:10.37,2013-04-26 10:54:00,
2013-04-26 03:59:00,47.7,41.5,30.17,SW,225,1.2,0.0,79,0.00,CLR,,0.00,WeatherDisplay:10.37,2013-04-26 10:59:00,
2013-04-26 04:04:00,47.7,41.5,30.18,SW,225,1.2,0.0,79,0.00,CLR,,0.00,WeatherDisplay:10.37,2013-04-26 11:04:00,
2013-04-26 04:09:00,47.8,41.6,30.18,NW,315,1.2,0.0,79,0.00,CLR,,0.00,WeatherDisplay:10.37,2013-04-26 11:09:00,
2013-04-26 04:14:00,47.7,41.5,30.18,SW,225,1.2,0.0,79,0.00,CLR,,0.00,WeatherDisplay:10.37,2013-04-26 11:14:00,
2013-04-26 04:19:00,47.8,41.6,30.17,SW,225,1.2,0.0,79,0.00,CLR,,0.00,WeatherDisplay:10.37,2013-04-26 11:19:00,
2013-04-26 04:24:00,47.8,41.6,30.17,South,180,1.2,0.0,79,0.00,CLR,,0.00,WeatherDisplay:10.37,2013-04-26 11:24:00,
2013-04-26 04:29:00,48.0,41.8,30.17,SE,135,1.2,0.0,79,0.00,CLR,,0.00,WeatherDisplay:10.37,2013-04-26 11:29:00,
2013-04-26 04:34:00,48.0,41.8,30.18,South,180,3.5,3.5,79,0.00,CLR,,0.00,WeatherDisplay:10.37,2013-04-26 11:34:00,
2013-04-26 04:39:00,47.8,41.6,30.17,South,180,1.2,0.0,79,0.00,CLR,,0.00,WeatherDisplay:10.37,2013-04-26 11:39:00,
2013-04-26 04:44:00,48.0,41.8,30.17,South,180,1.2,0.0,79,0.00,CLR,,0.00,WeatherDisplay:10.37,2013-04-26 11:44:00,
2013-04-26 04:49:00,48.0,41.8,30.17,West,270,1.2,1.2,79,0.00,CLR,,0.00,WeatherDisplay:10.37,2013-04-26 11:49:00,
2013-04-26 04:54:00,48.0,41.8,30.18,NW,315,2.3,2.3,79,0.00,CLR,,0.00,WeatherDisplay:10.37,2013-04-26 11:54:00,
2013-04-26 04:59:00,48.0,41.8,30.18,West,270,1.2,1.2,79,0.00,CLR,,0.00,WeatherDisplay:10.37,2013-04-26 11:59:00,
2013-04-26 05:04:00,48.0,41.8,30.18,NW,315,2.3,0.0,79,0.00,CLR,,0.00,WeatherDisplay:10.37,2013-04-26 12:04:00,
2013-04-26 05:09:00,48.0,41.8,30.17,West,270,2.3,0.0,79,0.00,CLR,,0.00,WeatherDisplay:10.37,2013-04-26 12:09:00,
2013-04-26 05:14:00,48.0,41.8,30.18,NW,315,2.3,2.3,79,0.00,CLR,,0.00,WeatherDisplay:10.37,2013-04-26 12:14:00,
2013-04-26 05:19:00,47.8,41.6,30.18,West,270,1.2,0.0,79,0.00,CLR,,0.00,WeatherDisplay:10.37,2013-04-26 12:19:00,
2013-04-26 05:24:00,47.8,41.6,30.18,NW,315,3.5,3.5,79,0.00,CLR,,0.00,WeatherDisplay:10.37,2013-04-26 12:24:00,
2013-04-26 05:29:00,47.7,41.5,30.18,West,270,2.3,2.3,79,0.00,CLR,,0.00,WeatherDisplay:10.37,2013-04-26 12:29:00,
2013-04-26 05:34:00,47.7,41.5,30.18,NW,315,2.3,0.0,79,0.00,CLR,,0.00,WeatherDisplay:10.37,2013-04-26 12:34:00,
2013-04-26 05:40:00,47.5,41.3,30.17,SW,225,1.2,0.0,79,0.00,CLR,,0.00,WeatherDisplay:10.37,2013-04-26 12:40:00,
2013-04-26 05:45:00,47.5,41.3,30.17,West,270,1.2,0.0,79,0.00,CLR,,0.00,WeatherDisplay:10.37,2013-04-26 12:45:00,
2013-04-26 05:50:00,47.5,41.3,30.17,West,270,0.0,0.0,79,0.00,CLR,,0.00,WeatherDisplay:10.37,2013-04-26 12:50:00,
2013-04-26 05:55:00,47.5,41.3,30.17,West,270,1.2,0.0,79,0.00,CLR,,0.00,WeatherDisplay:10.37,2013-04-26 12:55:00,
2013-04-26 06:00:00,47.5,41.3,30.17,NW,315,1.2,1.2,79,0.00,CLR,,0.00,WeatherDisplay:10.37,2013-04-26 13:00:00,
2013-04-26 06:05:00,47.5,41.3,30.17,West,270,2.3,2.3,79,0.00,CLR,,0.00,WeatherDisplay:10.37,2013-04-26 13:05:00,
2013-04-26 06:10:00,47.3,41.1,30.17,West,270,3.5,3.5,79,0.00,CLR,,0.00,WeatherDisplay:10.37,2013-04-26 13:10:00,
2013-04-26 06:15:00,47.3,41.1,30.17,West,270,1.2,0.0,79,0.00,CLR,,0.00,WeatherDisplay:10.37,2013-04-26 13:15:00,
2013-04-26 06:20:00,47.3,41.1,30.17,West,270,1.2,0.0,79,0.00,CLR,,0.00,WeatherDisplay:10.37,2013-04-26 13:20:00,
2013-04-26 06:25:00,47.5,41.3,30.17,SW,225,1.2,1.2,79,0.00,CLR,,0.00,WeatherDisplay:10.37,2013-04-26 13:25:00,
2013-04-26 06:30:00,47.5,41.6,30.17,SW,225,2.2,2.2,80,0.00,CLR,,0.00,WeatherDisplay:10.37,2013-04-26 13:30:00,
2013-04-26 06:35:00,47.7,41.8,30.18,South,180,3.5,3.5,80,0.00,CLR,,0.00,WeatherDisplay:10.37,2013-04-26 13:35:00,
2013-04-26 06:40:00,47.8,42.0,30.18,SW,225,3.5,3.5,80,0.00,CLR,,0.00,WeatherDisplay:10.37,2013-04-26 13:40:00,
2013-04-26 06:45:00,47.5,41.6,30.17,SW,225,1.2,0.0,80,0.00,CLR,,0.00,WeatherDisplay:10.37,2013-04-26 13:45:00,
2013-04-26 06:50:00,47.5,41.6,30.18,NW,315,1.2,0.0,80,0.00,CLR,,0.00,WeatherDisplay:10.37,2013-04-26 13:50:00,
2013-04-26 06:55:00,47.7,41.8,30.17,SW,225,1.2,0.0,80,0.00,CLR,,0.00,WeatherDisplay:10.37,2013-04-26 13:55:00,
2013-04-26 07:00:00,47.8,42.0,30.17,SW,225,1.2,0.0,80,0.00,CLR,,0.00,WeatherDisplay:10.37,2013-04-26 14:00:00,
2013-04-26 07:05:00,48.0,42.1,30.18,West,270,1.2,1.2,80,0.00,CLR,,0.00,WeatherDisplay:10.37,2013-04-26 14:05:00,
2013-04-26 07:10:00,48.0,42.1,30.18,NW,315,2.3,2.3,80,0.00,CLR,,0.00,WeatherDisplay:10.37,2013-04-26 14:10:00,
2013-04-26 07:15:00,48.2,42.3,30.18,SW,225,2.3,0.0,80,0.00,CLR,,0.00,WeatherDisplay:10.37,2013-04-26 14:15:00,
2013-04-26 07:20:00,48.2,42.3,30.19,North,0,2.3,2.3,80,0.00,CLR,,0.00,WeatherDisplay:10.37,2013-04-26 14:20:00,
2013-04-26 07:25:00,48.2,42.3,30.19,West,270,1.2,0.0,80,0.00,CLR,,0.00,WeatherDisplay:10.37,2013-04-26 14:25:00,
2013-04-26 07:30:00,48.4,42.5,30.19,SW,225,1.2,0.0,80,0.00,CLR,,0.00,WeatherDisplay:10.37,2013-04-26 14:30:00,
2013-04-26 07:35:00,48.7,42.8,30.19,NW,315,1.2,1.2,80,0.00,CLR,,0.00,WeatherDisplay:10.37,2013-04-26 14:35:00,
2013-04-26 07:40:00,48.7,42.8,30.20,West,270,1.2,0.0,80,0.00,CLR,,0.00,WeatherDisplay:10.37,2013-04-26 14:40:00,
2013-04-26 07:45:00,48.7,42.8,30.20,West,270,3.5,0.0,80,0.00,CLR,,0.00,WeatherDisplay:10.37,2013-04-26 14:45:00,
2013-04-26 07:50:00,48.7,42.8,30.19,NW,315,1.2,1.6,80,0.00,CLR,,0.00,WeatherDisplay:10.37,2013-04-26 14:50:00,
2013-04-26 07:55:00,48.7,42.5,30.20,West,270,5.8,5.8,79,0.00,CLR,,0.00,WeatherDisplay:10.37,2013-04-26 14:55:00,
2013-04-26 08:00:00,49.1,43.2,30.20,North,0,1.2,0.0,80,0.00,CLR,,0.00,WeatherDisplay:10.37,2013-04-26 15:00:00,
2013-04-26 08:05:00,49.3,43.4,30.19,South,180,2.3,2.3,80,0.00,CLR,,0.00,WeatherDisplay:10.37,2013-04-26 15:05:00,
2013-04-26 08:10:00,49.5,43.2,30.19,East,90,2.3,0.0,79,0.00,CLR,,0.00,WeatherDisplay:10.37,2013-04-26 15:10:00,
2013-04-26 08:15:00,49.5,43.2,30.20,West,270,1.2,0.0,79,0.00,CLR,,0.00,WeatherDisplay:10.37,2013-04-26 15:15:00,
2013-04-26 08:20:00,49.8,43.6,30.20,North,0,1.2,0.0,79,0.00,CLR,,0.00,WeatherDisplay:10.37,2013-04-26 15:20:00,
2013-04-26 08:25:00,50.0,43.7,30.20,NW,315,2.3,2.3,79,0.00,CLR,,0.00,WeatherDisplay:10.37,2013-04-26 15:25:00,
2013-04-26 08:30:00,50.0,43.4,30.20,West,270,2.3,0.0,78,0.00,CLR,,0.00,WeatherDisplay:10.37,2013-04-26 15:30:00,
2013-04-26 08:35:00,50.2,43.6,30.19,South,180,1.2,1.2,78,0.00,CLR,,0.00,WeatherDisplay:10.37,2013-04-26 15:35:00,
2013-04-26 08:40:00,50.4,43.4,30.19,SW,225,2.3,0.0,77,0.00,CLR,,0.00,WeatherDisplay:10.37,2013-04-26 15:40:00,
2013-04-26 08:45:00,50.9,43.9,30.21,West,270,1.2,0.0,77,0.00,CLR,,0.00,WeatherDisplay:10.37,2013-04-26 15:45:00,
2013-04-26 08:50:00,51.4,44.1,30.20,West,270,3.5,0.0,76,0.00,CLR,,0.00,WeatherDisplay:10.37,2013-04-26 15:50:00,
2013-04-26 08:55:00,51.6,44.0,30.20,NW,315,1.2,1.2,75,0.00,CLR,,0.00,WeatherDisplay:10.37,2013-04-26 15:55:00,
2013-04-26 09:00:00,51.8,43.8,30.21,West,270,3.5,3.5,74,0.00,CLR,,0.00,WeatherDisplay:10.37,2013-04-26 16:00:00,
2013-04-26 09:05:00,52.0,42.9,30.21,North,0,2.3,2.3,71,0.00,CLR,,0.00,WeatherDisplay:10.37,2013-04-26 16:05:00,
2013-04-26 09:10:00,52.5,42.6,30.21,South,180,1.2,0.0,69,0.00,CLR,,0.00,WeatherDisplay:10.37,2013-04-26 16:10:00,
2013-04-26 09:15:00,53.1,42.0,30.20,South,180,3.5,3.5,66,0.00,CLR,,0.00,WeatherDisplay:10.37,2013-04-26 16:15:00,
2013-04-26 09:20:00,53.2,41.0,30.20,South,180,3.5,3.5,63,0.00,CLR,,0.00,WeatherDisplay:10.37,2013-04-26 16:20:00,
2013-04-26 09:25:00,53.6,40.5,30.20,South,180,4.6,4.6,61,0.00,CLR,,0.00,WeatherDisplay:10.37,2013-04-26 16:25:00,
2013-04-26 09:30:00,54.1,40.6,30.20,SE,135,2.3,2.3,60,0.00,CLR,,0.00,WeatherDisplay:10.37,2013-04-26 16:30:00,
2013-04-26 09:35:00,53.8,39.3,30.20,South,180,3.5,3.5,58,0.00,CLR,,0.00,WeatherDisplay:10.37,2013-04-26 16:35:00,
2013-04-26 09:40:00,53.8,39.8,30.19,SW,225,3.5,3.5,59,0.00,CLR,,0.00,WeatherDisplay:10.37,2013-04-26 16:40:00,
2013-04-26 09:45:00,53.8,39.8,30.20,West,270,2.3,2.3,59,0.00,CLR,,0.00,WeatherDisplay:10.37,2013-04-26 16:45:00,
2013-04-26 09:50:00,54.5,40.9,30.19,West,270,2.3,0.0,60,0.00,CLR,,0.00,WeatherDisplay:10.37,2013-04-26 16:50:00,
2013-04-26 09:55:00,56.1,41.5,30.20,SW,225,1.2,1.2,58,0.00,CLR,,0.00,WeatherDisplay:10.37,2013-04-26 16:55:00,
2013-04-26 10:00:00,59.5,35.2,30.19,SW,225,3.5,3.5,40,0.00,CLR,,0.00,WeatherDisplay:10.37,2013-04-26 17:00:00,
2013-04-26 10:05:00,61.3,26.1,30.19,South,180,5.8,5.8,26,0.00,CLR,,0.00,WeatherDisplay:10.37,2013-04-26 17:05:00,
2013-04-26 10:10:00,62.1,23.8,30.19,SSE,158,3.5,3.5,23,0.00,CLR,,0.00,WeatherDisplay:10.37,2013-04-26 17:10:00,
2013-04-26 10:15:00,63.1,20.2,30.19,South,180,3.5,3.5,19,0.00,CLR,,0.00,WeatherDisplay:10.37,2013-04-26 17:15:00,
2013-04-26 10:20:00,65.5,27.7,30.19,South,180,2.3,2.3,24,0.00,CLR,,0.00,WeatherDisplay:10.37,2013-04-26 17:20:00,
2013-04-26 10:25:00,66.4,25.2,30.19,South,180,3.5,0.0,21,0.00,CLR,,0.00,WeatherDisplay:10.37,2013-04-26 17:25:00,
2013-04-26 10:30:00,68.0,31.8,30.19,South,180,3.5,0.0,26,0.00,CLR,,0.00,WeatherDisplay:10.37,2013-04-26 17:30:00,
2013-04-26 10:35:00,68.5,23.3,30.19,SSE,158,5.8,5.8,18,0.00,CLR,,0.00,WeatherDisplay:10.37,2013-04-26 17:35:00,
2013-04-26 10:40:00,69.3,26.4,30.19,NE,45,2.3,2.3,20,0.00,CLR,,0.00,WeatherDisplay:10.37,2013-04-26 17:40:00,
2013-04-26 10:45:00,71.6,24.4,30.19,West,270,3.5,3.5,17,0.00,CLR,,0.00,WeatherDisplay:10.37,2013-04-26 17:45:00,
2013-04-26 10:50:00,72.5,27.9,30.19,NW,315,2.3,0.0,19,0.00,CLR,,0.00,WeatherDisplay:10.37,2013-04-26 17:50:00,
2013-04-26 10:55:00,73.0,28.3,30.19,NW,315,3.5,3.5,19,0.00,CLR,,0.00,WeatherDisplay:10.37,2013-04-26 17:55:00,
2013-04-26 11:00:00,72.9,26.8,30.19,SE,135,1.2,0.0,18,0.00,CLR,,0.00,WeatherDisplay:10.37,2013-04-26 18:00:00,
2013-04-26 11:06:00,72.9,25.5,30.19,NW,315,3.5,3.5,17,0.00,CLR,,0.00,WeatherDisplay:10.37,2013-04-26 18:06:00,
2013-04-26 11:11:00,73.0,29.6,30.19,South,180,3.5,3.5,20,0.00,CLR,,0.00,WeatherDisplay:10.37,2013-04-26 18:11:00,
2013-04-26 11:16:00,75.2,27.4,30.19,West,270,3.5,3.5,17,0.00,CLR,,0.00,WeatherDisplay:10.37,2013-04-26 18:16:00,
2013-04-26 11:21:00,76.6,23.8,30.19,NE,45,4.6,4.6,14,0.00,CLR,,0.00,WeatherDisplay:10.37,2013-04-26 18:21:00,
2013-04-26 11:26:00,76.6,23.8,30.19,NE,45,3.5,3.5,14,0.00,CLR,,0.00,WeatherDisplay:10.37,2013-04-26 18:26:00,
2013-04-26 11:31:00,77.0,20.5,30.19,West,270,4.6,4.6,12,0.00,CLR,,0.00,WeatherDisplay:10.37,2013-04-26 18:31:00,
2013-04-26 11:36:00,77.2,22.5,30.19,West,270,3.5,3.5,13,0.00,CLR,,0.00,WeatherDisplay:10.37,2013-04-26 18:36:00,
2013-04-26 11:41:00,77.5,22.8,30.20,NW,315,5.8,5.8,13,0.00,CLR,,0.00,WeatherDisplay:10.37,2013-04-26 18:41:00,
2013-04-26 11:46:00,77.4,24.4,30.19,West,270,8.1,8.1,14,0.00,CLR,,0.00,WeatherDisplay:10.37,2013-04-26 18:46:00,
2013-04-26 11:51:00,76.1,25.1,30.19,NW,315,3.5,3.5,15,0.00,CLR,,0.00,WeatherDisplay:10.37,2013-04-26 18:51:00,
2013-04-26 11:56:00,76.1,21.6,30.19,West,270,5.8,5.8,13,0.00,CLR,,0.00,WeatherDisplay:10.37,2013-04-26 18:56:00,
2013-04-26 12:01:00,75.6,21.2,30.19,West,270,6.9,6.9,13,0.00,CLR,,0.00,WeatherDisplay:10.37,2013-04-26 19:01:00,
2013-04-26 12:06:00,74.8,22.4,30.19,NW,315,8.1,8.1,14,0.00,CLR,,0.00,WeatherDisplay:10.37,2013-04-26 19:06:00,
2013-04-26 12:11:00,75.0,22.5,30.19,NW,315,5.8,5.8,14,0.00,CLR,,0.00,WeatherDisplay:10.37,2013-04-26 19:11:00,
2013-04-26 12:16:00,74.3,18.4,30.20,West,270,8.1,8.1,12,0.00,CLR,,0.00,WeatherDisplay:10.37,2013-04-26 19:16:00,
2013-04-26 12:21:00,73.4,24.4,30.19,West,270,6.9,6.9,16,0.00,CLR,,0.00,WeatherDisplay:10.37,2013-04-26 19:21:00,
2013-04-26 12:26:00,71.8,27.3,30.19,North,0,5.8,5.8,19,0.00,CLR,,0.00,WeatherDisplay:10.37,2013-04-26 19:26:00,
2013-04-26 12:31:00,73.0,28.3,30.19,SE,135,5.8,5.8,19,0.00,CLR,,0.00,WeatherDisplay:10.37,2013-04-26 19:31:00,
2013-04-26 12:36:00,74.8,27.1,30.19,North,0,5.8,5.8,17,0.00,CLR,,0.00,WeatherDisplay:10.37,2013-04-26 19:36:00,
2013-04-26 12:41:00,75.6,24.6,30.19,SW,225,3.5,3.5,15,0.00,CLR,,0.00,WeatherDisplay:10.37,2013-04-26 19:41:00,
2013-04-26 12:46:00,75.9,23.3,30.19,North,0,3.5,3.5,14,0.00,CLR,,0.00,WeatherDisplay:10.37,2013-04-26 19:46:00,
2013-04-26 12:51:00,77.4,22.6,30.19,NW,315,3.5,3.5,13,0.00,CLR,,0.00,WeatherDisplay:10.37,2013-04-26 19:51:00,
2013-04-26 12:56:00,77.0,16.2,30.19,West,270,8.1,8.1,10,0.00,CLR,,0.00,WeatherDisplay:10.37,2013-04-26 19:56:00,
2013-04-26 13:01:00,74.1,18.2,30.19,SW,225,10.4,10.4,12,0.00,CLR,,0.00,WeatherDisplay:10.37,2013-04-26 20:01:00,
2013-04-26 13:06:00,72.3,25.0,30.19,West,270,8.3,8.3,17,0.00,CLR,,0.00,WeatherDisplay:10.37,2013-04-26 20:06:00,
2013-04-26 13:11:00,72.3,26.4,30.19,West,270,5.8,5.8,18,0.00,CLR,,0.00,WeatherDisplay:10.37,2013-04-26 20:11:00,
2013-04-26 13:16:00,71.6,28.4,30.19,West,270,9.8,9.8,20,0.00,CLR,,0.00,WeatherDisplay:10.37,2013-04-26 20:16:00,
2013-04-26 13:21:00,70.9,26.5,30.19,NW,315,8.1,8.1,19,0.00,CLR,,0.00,WeatherDisplay:10.37,2013-04-26 20:21:00,
2013-04-26 13:26:00,69.6,30.1,30.19,NW,315,8.1,8.1,23,0.00,CLR,,0.00,WeatherDisplay:10.37,2013-04-26 20:26:00,
2013-04-26 13:31:00,70.2,31.7,30.19,North,0,13.8,13.8,24,0.00,CLR,,0.00,WeatherDisplay:10.37,2013-04-26 20:31:00,
2013-04-26 13:36:00,70.9,31.2,30.19,NE,45,8.1,8.1,23,0.00,CLR,,0.00,WeatherDisplay:10.37,2013-04-26 20:36:00,
2013-04-26 13:41:00,71.1,31.4,30.19,South,180,4.6,4.6,23,0.00,CLR,,0.00,WeatherDisplay:10.37,2013-04-26 20:41:00,
2013-04-26 13:46:00,72.3,29.0,30.19,North,0,6.9,6.9,20,0.00,CLR,,0.00,WeatherDisplay:10.37,2013-04-26 20:46:00,
2013-04-26 13:51:00,72.9,25.5,30.19,NW,315,8.1,8.1,17,0.00,CLR,,0.00,WeatherDisplay:10.37,2013-04-26 20:51:00,
2013-04-26 13:56:00,72.0,26.1,30.20,West,270,8.1,8.1,18,0.00,CLR,,0.00,WeatherDisplay:10.37,2013-04-26 20:56:00,
2013-04-26 14:01:00,70.7,28.8,30.21,North,0,12.7,12.7,21,0.00,CLR,,0.00,WeatherDisplay:10.37,2013-04-26 21:01:00,
2013-04-26 14:06:00,69.8,30.3,30.21,WNW,292,8.1,8.1,23,0.00,CLR,,0.00,WeatherDisplay:10.37,2013-04-26 21:06:00,
2013-04-26 14:11:00,68.4,30.1,30.21,NW,315,10.4,10.4,24,0.00,CLR,,0.00,WeatherDisplay:10.37,2013-04-26 21:11:00,
2013-04-26 14:16:00,65.8,31.8,30.22,North,0,12.7,12.7,28,0.00,CLR,,0.00,WeatherDisplay:10.37,2013-04-26 21:16:00,
2013-04-26 14:21:00,63.5,23.9,30.22,NW,315,9.2,9.2,22,0.00,CLR,,0.00,WeatherDisplay:10.37,2013-04-26 21:21:00,
2013-04-26 14:26:00,64.0,18.3,30.22,NW,315,9.2,9.2,17,0.00,CLR,,0.00,WeatherDisplay:10.37,2013-04-26 21:26:00,
2013-04-26 14:31:00,64.4,15.7,30.21,SW,225,5.8,5.8,15,0.00,CLR,,0.00,WeatherDisplay:10.37,2013-04-26 21:31:00,
2013-04-26 14:36:00,65.3,14.8,30.21,SW,225,9.2,9.2,14,0.00,CLR,,0.00,WeatherDisplay:10.37,2013-04-26 21:36:00,
2013-04-26 14:41:00,66.2,10.1,30.21,West,270,5.8,5.8,11,0.00,CLR,,0.00,WeatherDisplay:10.37,2013-04-26 21:41:00,
2013-04-26 14:46:00,66.7,8.3,30.21,West,270,2.3,2.3,10,0.00,CLR,,0.00,WeatherDisplay:10.37,2013-04-26 21:46:00,
2013-04-26 14:51:00,68.2,9.5,30.21,West,270,4.6,4.6,10,0.00,CLR,,0.00,WeatherDisplay:10.37,2013-04-26 21:51:00,
2013-04-26 14:56:00,68.7,9.9,30.21,West,270,5.8,5.8,10,0.00,CLR,,0.00,WeatherDisplay:10.37,2013-04-26 21:56:00,
2013-04-26 15:01:00,68.0,9.3,30.21,NW,315,9.2,9.2,10,0.00,CLR,,0.00,WeatherDisplay:10.37,2013-04-26 22:01:00,
2013-04-26 15:06:00,67.1,8.6,30.21,NW,315,6.9,6.9,10,0.00,CLR,,0.00,WeatherDisplay:10.37,2013-04-26 22:06:00,
2013-04-26 15:11:00,65.5,9.5,30.21,North,0,6.9,6.9,11,0.00,CLR,,0.00,WeatherDisplay:10.37,2013-04-26 22:11:00,
2013-04-26 15:16:00,65.5,9.5,30.22,SW,225,5.8,5.8,11,0.00,CLR,,0.00,WeatherDisplay:10.37,2013-04-26 22:16:00,
2013-04-26 15:21:00,65.1,9.2,30.22,West,270,8.1,8.1,11,0.00,CLR,,0.00,WeatherDisplay:10.37,2013-04-26 22:21:00,
2013-04-26 15:26:00,65.5,15.0,30.22,West,270,5.8,5.8,14,0.00,CLR,,0.00,WeatherDisplay:10.37,2013-04-26 22:26:00,
2013-04-26 15:31:00,65.5,11.5,30.22,SW,225,8.1,8.1,12,0.00,CLR,,0.00,WeatherDisplay:10.37,2013-04-26 22:31:00,
2013-04-26 15:36:00,65.7,13.4,30.22,West,270,3.5,3.8,13,0.00,CLR,,0.00,WeatherDisplay:10.37,2013-04-26 22:36:00,
2013-04-26 15:41:00,65.5,13.3,30.22,SW,225,9.2,9.2,13,0.00,CLR,,0.00,WeatherDisplay:10.37,2013-04-26 22:41:00,
2013-04-26 15:46:00,65.1,13.0,30.22,NW,315,11.5,11.5,13,0.00,CLR,,0.00,WeatherDisplay:10.37,2013-04-26 22:46:00,
2013-04-26 16:06:00,61.2,20.9,30.22,SW,225,9.2,9.2,21,0.00,CLR,,0.00,WeatherDisplay:10.37,2013-04-26 23:06:00,
2013-04-26 16:12:00,60.4,23.4,30.22,North,0,3.5,0.0,24,0.00,CLR,,0.00,WeatherDisplay:10.37,2013-04-26 23:12:00,
2013-04-26 16:17:00,59.2,24.3,30.22,West,270,9.2,9.2,26,0.00,CLR,,0.00,WeatherDisplay:10.37,2013-04-26 23:17:00,
2013-04-26 16:22:00,58.8,28.2,30.21,SW,225,8.1,8.1,31,0.00,CLR,,0.00,WeatherDisplay:10.37,2013-04-26 23:22:00,
2013-04-26 16:27:00,58.6,30.3,30.21,North,0,8.1,8.1,34,0.00,CLR,,0.00,WeatherDisplay:10.37,2013-04-26 23:27:00,
2013-04-26 16:32:00,58.8,31.2,30.21,NW,315,8.1,8.1,35,0.00,CLR,,0.00,WeatherDisplay:10.37,2013-04-26 23:32:00,
2013-04-26 16:37:00,58.6,30.3,30.21,West,270,8.1,8.1,34,0.00,CLR,,0.00,WeatherDisplay:10.37,2013-04-26 23:37:00,
2013-04-26 16:42:00,59.4,31.7,30.21,NW,315,8.1,8.1,35,0.00,CLR,,0.00,WeatherDisplay:10.37,2013-04-26 23:42:00,
2013-04-26 16:47:00,59.4,31.0,30.22,West,270,8.1,8.1,34,0.00,CLR,,0.00,WeatherDisplay:10.37,2013-04-26 23:47:00,
2013-04-26 16:52:00,60.8,31.5,30.22,NW,315,6.9,6.9,33,0.00,CLR,,0.00,WeatherDisplay:10.37,2013-04-26 23:52:00,
2013-04-26 17:05:00,59.9,28.4,30.22,West,270,5.8,5.8,30,0.00,CLR,,0.00,WeatherDisplay:10.37,2013-04-27 00:05:00,
2013-04-26 17:10:00,59.5,28.8,30.22,West,270,10.4,10.4,31,0.00,CLR,,0.00,WeatherDisplay:10.37,2013-04-27 00:10:00,
2013-04-26 17:15:00,60.3,29.5,30.22,NW,315,9.2,9.2,31,0.00,CLR,,0.00,WeatherDisplay:10.37,2013-04-27 00:15:00,
2013-04-26 17:20:00,61.3,27.9,30.22,NW,315,10.4,10.4,28,0.00,CLR,,0.00,WeatherDisplay:10.37,2013-04-27 00:20:00,
2013-04-26 17:25:00,61.3,26.1,30.22,NW,315,10.4,10.4,26,0.00,CLR,,0.00,WeatherDisplay:10.37,2013-04-27 00:25:00,
2013-04-26 17:30:00,60.6,28.2,30.22,West,270,10.4,10.4,29,0.00,CLR,,0.00,WeatherDisplay:10.37,2013-04-27 00:30:00,
2013-04-26 17:35:00,60.3,27.8,30.22,West,270,9.2,9.2,29,0.00,CLR,,0.00,WeatherDisplay:10.37,2013-04-27 00:35:00,
2013-04-26 17:40:00,60.8,29.1,30.22,West,270,5.8,5.8,30,0.00,CLR,,0.00,WeatherDisplay:10.37,2013-04-27 00:40:00,
2013-04-26 17:45:00,61.0,27.6,30.22,West,270,5.8,5.8,28,0.00,CLR,,0.00,WeatherDisplay:10.37,2013-04-27 00:45:00,
2013-04-26 17:50:00,61.7,28.2,30.22,NW,315,5.8,5.8,28,0.00,CLR,,0.00,WeatherDisplay:10.37,2013-04-27 00:50:00,
2013-04-26 17:55:00,62.2,27.8,30.23,NW,315,6.9,6.9,27,0.00,CLR,,0.00,WeatherDisplay:10.37,2013-04-27 00:55:00,
2013-04-26 18:00:00,61.0,25.8,30.23,West,270,5.8,5.8,26,0.00,CLR,,0.00,WeatherDisplay:10.37,2013-04-27 01:00:00,
2013-04-26 18:05:00,58.8,27.4,30.23,NW,315,8.1,8.1,30,0.00,CLR,,0.00,WeatherDisplay:10.37,2013-04-27 01:05:00,
2013-04-26 18:10:00,56.7,30.0,30.23,West,270,6.9,6.9,36,0.00,CLR,,0.00,WeatherDisplay:10.37,2013-04-27 01:10:00,
2013-04-26 18:15:00,55.9,31.3,30.24,NW,315,10.4,10.4,39,0.00,CLR,,0.00,WeatherDisplay:10.37,2013-04-27 01:15:00,
2013-04-26 18:21:00,55.4,32.1,30.24,SW,225,6.9,6.9,41,0.00,CLR,,0.00,WeatherDisplay:10.37,2013-04-27 01:21:00,
2013-04-26 18:26:00,54.7,33.2,30.24,West,270,3.5,3.5,44,0.00,CLR,,0.00,WeatherDisplay:10.37,2013-04-27 01:26:00,
2013-04-26 18:31:00,54.5,35.2,30.24,West,270,3.8,3.8,48,0.00,CLR,,0.00,WeatherDisplay:10.37,2013-04-27 01:31:00,
2013-04-26 18:36:00,53.8,34.5,30.24,West,270,3.5,3.5,48,0.00,CLR,,0.00,WeatherDisplay:10.37,2013-04-27 01:36:00,
2013-04-26 18:41:00,53.2,35.6,30.24,NW,315,5.8,5.8,51,0.00,CLR,,0.00,WeatherDisplay:10.37,2013-04-27 01:41:00,
2013-04-26 18:46:00,53.2,35.6,30.24,West,270,3.5,3.5,51,0.00,CLR,,0.00,WeatherDisplay:10.37,2013-04-27 01:46:00,
2013-04-26 18:51:00,52.9,36.2,30.24,SW,225,3.5,3.5,53,0.00,CLR,,0.00,WeatherDisplay:10.37,2013-04-27 01:51:00,
2013-04-26 18:56:00,52.7,36.5,30.23,SW,225,3.5,3.5,54,0.00,CLR,,0.00,WeatherDisplay:10.37,2013-04-27 01:56:00,
2013-04-26 19:01:00,52.2,36.5,30.24,NW,315,5.8,5.8,55,0.00,CLR,,0.00,WeatherDisplay:10.37,2013-04-27 02:01:00,
2013-04-26 19:06:00,52.2,36.9,30.23,West,270,3.5,3.5,56,0.00,CLR,,0.00,WeatherDisplay:10.37,2013-04-27 02:06:00,
2013-04-26 19:11:00,51.6,36.4,30.24,West,270,3.5,3.5,56,0.00,CLR,,0.00,WeatherDisplay:10.37,2013-04-27 02:11:00,
2013-04-26 19:16:00,51.6,36.9,30.24,West,270,1.6,0.0,57,0.00,CLR,,0.00,WeatherDisplay:10.37,2013-04-27 02:16:00,
2013-04-26 19:21:00,51.6,36.9,30.24,WNW,292,5.8,5.8,57,0.00,CLR,,0.00,WeatherDisplay:10.37,2013-04-27 02:21:00,
2013-04-26 19:26:00,51.1,36.8,30.24,West,270,6.9,6.9,58,0.00,CLR,,0.00,WeatherDisplay:10.37,2013-04-27 02:26:00,
2013-04-26 19:31:00,50.9,36.2,30.25,North,0,1.2,1.2,57,0.00,CLR,,0.00,WeatherDisplay:10.37,2013-04-27 02:31:00,
2013-04-26 19:36:00,50.7,36.9,30.24,West,270,1.2,0.0,59,0.00,CLR,,0.00,WeatherDisplay:10.37,2013-04-27 02:36:00,
2013-04-26 19:41:00,50.5,38.0,30.24,SW,225,5.8,5.8,62,0.00,CLR,,0.00,WeatherDisplay:10.37,2013-04-27 02:41:00,
2013-04-26 19:46:00,50.4,38.2,30.24,SW,225,4.6,4.6,63,0.00,CLR,,0.00,WeatherDisplay:10.37,2013-04-27 02:46:00,
2013-04-26 19:51:00,50.2,38.5,30.24,SW,225,3.5,3.5,64,0.00,CLR,,0.00,WeatherDisplay:10.37,2013-04-27 02:51:00,
2013-04-26 19:56:00,50.0,38.3,30.25,SW,225,2.3,2.3,64,0.00,CLR,,0.00,WeatherDisplay:10.37,2013-04-27 02:56:00,
2013-04-26 20:01:00,49.8,38.1,30.25,West,270,2.3,0.0,64,0.00,CLR,,0.00,WeatherDisplay:10.37,2013-04-27 03:01:00,
2013-04-26 20:06:00,49.6,38.3,30.25,SW,225,2.3,2.3,65,0.00,CLR,,0.00,WeatherDisplay:10.37,2013-04-27 03:06:00,
2013-04-26 20:11:00,49.6,38.3,30.25,NW,315,2.3,2.3,65,0.00,CLR,,0.00,WeatherDisplay:10.37,2013-04-27 03:11:00,
2013-04-26 20:16:00,49.5,38.2,30.25,West,270,5.8,5.8,65,0.00,CLR,,0.00,WeatherDisplay:10.37,2013-04-27 03:16:00,
2013-04-26 20:21:00,49.1,37.8,30.25,West,270,5.8,5.8,65,0.00,CLR,,0.00,WeatherDisplay:10.37,2013-04-27 03:21:00,
2013-04-26 20:26:00,48.9,37.7,30.26,East,90,2.3,2.3,65,0.00,CLR,,0.00,WeatherDisplay:10.37,2013-04-27 03:26:00,
2013-04-26 20:31:00,48.9,38.1,30.26,West,270,1.2,1.2,66,0.00,CLR,,0.00,WeatherDisplay:10.37,2013-04-27 03:31:00,
2013-04-26 20:36:00,48.9,38.1,30.27,SW,225,1.2,1.2,66,0.00,CLR,,0.00,WeatherDisplay:10.37,2013-04-27 03:36:00,
2013-04-26 20:41:00,48.9,38.1,30.27,NW,315,5.8,5.8,66,0.00,CLR,,0.00,WeatherDisplay:10.37,2013-04-27 03:41:00,
2013-04-26 20:46:00,48.9,38.4,30.27,NW,315,3.5,3.5,67,0.00,CLR,,0.00,WeatherDisplay:10.37,2013-04-27 03:46:00,
2013-04-26 20:51:00,49.1,38.6,30.27,South,180,1.2,0.0,67,0.00,CLR,,0.00,WeatherDisplay:10.37,2013-04-27 03:51:00,
2013-04-26 20:56:00,49.1,38.6,30.27,West,270,2.3,0.0,67,0.00,CLR,,0.00,WeatherDisplay:10.37,2013-04-27 03:56:00,
2013-04-26 21:01:00,49.1,38.6,30.27,South,180,3.5,0.0,67,0.00,CLR,,0.00,WeatherDisplay:10.37,2013-04-27 04:01:00,
2013-04-26 21:06:00,48.9,38.8,30.27,NW,315,2.3,2.3,68,0.00,CLR,,0.00,WeatherDisplay:10.37,2013-04-27 04:06:00,
2013-04-26 21:11:00,48.9,38.8,30.28,NW,315,2.3,2.3,68,0.00,CLR,,0.00,WeatherDisplay:10.37,2013-04-27 04:11:00,
2013-04-26 21:16:00,48.9,38.8,30.28,North,0,1.2,0.0,68,0.00,CLR,,0.00,WeatherDisplay:10.37,2013-04-27 04:16:00,
2013-04-26 21:21:00,48.9,38.8,30.28,NE,45,4.6,0.0,68,0.00,CLR,,0.00,WeatherDisplay:10.37,2013-04-27 04:21:00,
2013-04-26 21:26:00,48.9,38.4,30.29,NW,315,1.2,1.2,67,0.00,CLR,,0.00,WeatherDisplay:10.37,2013-04-27 04:26:00,
2013-04-26 21:31:00,48.9,38.4,30.29,SW,225,1.2,1.2,67,0.00,CLR,,0.00,WeatherDisplay:10.37,2013-04-27 04:31:00,
2013-04-26 21:36:00,48.9,38.8,30.29,NE,45,1.2,0.0,68,0.00,CLR,,0.00,WeatherDisplay:10.37,2013-04-27 04:36:00,
2013-04-26 21:42:00,49.1,38.6,30.29,West,270,1.2,0.0,67,0.00,CLR,,0.00,WeatherDisplay:10.37,2013-04-27 04:42:00,
2013-04-26 21:47:00,49.1,38.6,30.29,SW,225,2.3,2.3,67,0.00,CLR,,0.00,WeatherDisplay:10.37,2013-04-27 04:47:00,
2013-04-26 21:52:00,49.1,39.0,30.29,North,0,1.2,0.0,68,0.00,CLR,,0.00,WeatherDisplay:10.37,2013-04-27 04:52:00,
2013-04-26 21:57:00,48.9,38.4,30.29,West,270,2.3,2.3,67,0.00,CLR,,0.00,WeatherDisplay:10.37,2013-04-27 04:57:00,
2013-04-26 22:02:00,48.9,38.4,30.28,NE,45,1.2,0.0,67,0.00,CLR,,0.00,WeatherDisplay:10.37,2013-04-27 05:02:00,
2013-04-26 22:07:00,48.9,38.4,30.28,East,90,3.5,3.5,67,0.00,CLR,,0.00,WeatherDisplay:10.37,2013-04-27 05:07:00,
2013-04-26 22:12:00,48.7,37.9,30.28,NE,45,2.3,2.3,66,0.00,CLR,,0.00,WeatherDisplay:10.37,2013-04-27 05:12:00,
2013-04-26 22:17:00,48.6,38.1,30.28,East,90,1.2,1.2,67,0.00,CLR,,0.00,WeatherDisplay:10.37,2013-04-27 05:17:00,
2013-04-26 22:22:00,48.4,37.9,30.28,East,90,1.2,0.0,67,0.00,CLR,,0.00,WeatherDisplay:10.37,2013-04-27 05:22:00,
2013-04-26 22:27:00,48.6,38.1,30.29,East,90,1.2,0.0,67,0.00,CLR,,0.00,WeatherDisplay:10.37,2013-04-27 05:27:00,
2013-04-26 22:32:00,48.6,38.1,30.28,South,180,1.2,1.2,67,0.00,CLR,,0.00,WeatherDisplay:10.37,2013-04-27 05:32:00,
2013-04-26 22:37:00,48.6,38.5,30.28,South,180,1.2,1.2,68,0.00,CLR,,0.00,WeatherDisplay:10.37,2013-04-27 05:37:00,
2013-04-26 22:42:00,48.6,38.5,30.28,NW,315,1.2,0.0,68,0.00,CLR,,0.00,WeatherDisplay:10.37,2013-04-27 05:42:00,
2013-04-26 22:47:00,48.6,38.1,30.28,SW,225,1.2,0.0,67,0.00,CLR,,0.00,WeatherDisplay:10.37,2013-04-27 05:47:00,
2013-04-26 22:52:00,48.6,38.5,30.28,SE,135,2.3,0.0,68,0.00,CLR,,0.00,WeatherDisplay:10.37,2013-04-27 05:52:00,
2013-04-26 22:57:00,48.6,38.5,30.28,South,180,1.2,0.0,68,0.00,CLR,,0.00,WeatherDisplay:10.37,2013-04-27 05:57:00,
2013-04-26 23:02:00,48.6,38.5,30.27,East,90,1.2,0.0,68,0.00,CLR,,0.00,WeatherDisplay:10.37,2013-04-27 06:02:00,
2013-04-26 23:07:00,48.6,38.5,30.27,SE,135,1.2,0.0,68,0.00,CLR,,0.00,WeatherDisplay:10.37,2013-04-27 06:07:00,
2013-04-26 23:12:00,48.2,38.1,30.27,South,180,4.6,4.6,68,0.00,CLR,,0.00,WeatherDisplay:10.37,2013-04-27 06:12:00,
2013-04-26 23:17:00,48.0,38.3,30.27,SW,225,3.5,3.5,69,0.00,CLR,,0.00,WeatherDisplay:10.37,2013-04-27 06:17:00,
2013-04-26 23:22:00,47.8,38.2,30.27,South,180,4.6,4.6,69,0.00,CLR,,0.00,WeatherDisplay:10.37,2013-04-27 06:22:00,
2013-04-26 23:27:00,47.7,38.4,30.28,South,180,2.3,0.0,70,0.00,CLR,,0.00,WeatherDisplay:10.37,2013-04-27 06:27:00,
2013-04-26 23:32:00,47.7,38.4,30.27,SW,225,1.2,0.0,70,0.00,CLR,,0.00,WeatherDisplay:10.37,2013-04-27 06:32:00,
2013-04-26 23:37:00,47.7,38.4,30.27,SW,225,1.2,1.2,70,0.00,CLR,,0.00,WeatherDisplay:10.37,2013-04-27 06:37:00,
2013-04-26 23:42:00,47.7,38.4,30.27,SW,225,1.2,0.0,70,0.00,CLR,,0.00,WeatherDisplay:10.37,2013-04-27 06:42:00,
2013-04-26 23:47:00,47.7,38.7,30.27,South,180,0.0,0.0,71,0.00,CLR,,0.00,WeatherDisplay:10.37,2013-04-27 06:47:00,
2013-04-26 23:52:00,47.7,38.7,30.27,SE,135,1.2,0.0,71,0.00,CLR,,0.00,WeatherDisplay:10.37,2013-04-27 06:52:00,
2013-04-26 23:57:00,47.7,38.7,30.27,SW,225,2.3,2.3,71,0.00,CLR,,0.00,WeatherDisplay:10.37,2013-04-27 06:57:00,